sensor_id;sensor_type;location;lat;lon;timestamp;temperature;humidity
47168;DHT22;32931;47.778;17.806;2024-03-02T00:00:22;9.30;99.90
47168;DHT22;32931;47.778;17.806;2024-03-02T00:02:50;9.30;99.90
47168;DHT22;32931;47.778;17.806;2024-03-02T00:05:21;9.20;99.90
47168;DHT22;32931;47.778;17.806;2024-03-02T00:07:59;9.10;99.90
47168;DHT22;32931;47.778;17.806;2024-03-02T00:10:27;9.10;99.90
47168;DHT22;32931;47.778;17.806;2024-03-02T00:12:57;9.00;99.90
47168;DHT22;32931;47.778;17.806;2024-03-02T00:17:56;8.90;99.90
47168;DHT22;32931;47.778;17.806;2024-03-02T00:20:22;8.90;99.90
47168;DHT22;32931;47.778;17.806;2024-03-02T00:22:50;8.80;99.90
47168;DHT22;32931;47.778;17.806;2024-03-02T00:25:16;8.80;99.90
47168;DHT22;32931;47.778;17.806;2024-03-02T00:27:47;8.90;99.90
47168;DHT22;32931;47.778;17.806;2024-03-02T00:33:08;8.90;99.90
47168;DHT22;32931;47.778;17.806;2024-03-02T00:35:34;8.90;99.90
47168;DHT22;32931;47.778;17.806;2024-03-02T00:38:05;8.90;99.90
47168;DHT22;32931;47.778;17.806;2024-03-02T00:40:32;8.90;99.90
47168;DHT22;32931;47.778;17.806;2024-03-02T00:42:59;8.90;99.90
47168;DHT22;32931;47.778;17.806;2024-03-02T00:45:25;8.90;99.90
47168;DHT22;32931;47.778;17.806;2024-03-02T00:47:52;8.80;99.90
47168;DHT22;32931;47.778;17.806;2024-03-02T00:50:19;8.80;99.90
47168;DHT22;32931;47.778;17.806;2024-03-02T00:52:46;8.90;99.90
47168;DHT22;32931;47.778;17.806;2024-03-02T00:55:14;8.80;99.90
47168;DHT22;32931;47.778;17.806;2024-03-02T00:57:40;8.90;99.90
47168;DHT22;32931;47.778;17.806;2024-03-02T01:00:07;8.90;99.90
47168;DHT22;32931;47.778;17.806;2024-03-02T01:02:36;8.90;99.90
47168;DHT22;32931;47.778;17.806;2024-03-02T01:05:02;8.90;99.90
47168;DHT22;32931;47.778;17.806;2024-03-02T01:07:28;8.90;99.90
47168;DHT22;32931;47.778;17.806;2024-03-02T01:09:54;8.90;99.90
47168;DHT22;32931;47.778;17.806;2024-03-02T01:12:20;8.80;99.90
47168;DHT22;32931;47.778;17.806;2024-03-02T01:14:46;8.80;99.90
47168;DHT22;32931;47.778;17.806;2024-03-02T01:17:12;8.80;99.90
47168;DHT22;32931;47.778;17.806;2024-03-02T01:19:41;8.70;99.90
47168;DHT22;32931;47.778;17.806;2024-03-02T01:22:07;8.70;99.90
47168;DHT22;32931;47.778;17.806;2024-03-02T01:24:34;8.60;99.90
47168;DHT22;32931;47.778;17.806;2024-03-02T01:27:00;8.70;99.90
47168;DHT22;32931;47.778;17.806;2024-03-02T01:29:26;8.60;99.90
47168;DHT22;32931;47.778;17.806;2024-03-02T01:31:52;8.60;99.90
47168;DHT22;32931;47.778;17.806;2024-03-02T01:34:19;8.60;99.90
47168;DHT22;32931;47.778;17.806;2024-03-02T01:36:46;8.60;99.90
47168;DHT22;32931;47.778;17.806;2024-03-02T01:39:12;8.50;99.90
47168;DHT22;32931;47.778;17.806;2024-03-02T01:41:38;8.50;99.90
47168;DHT22;32931;47.778;17.806;2024-03-02T01:44:04;8.50;99.90
47168;DHT22;32931;47.778;17.806;2024-03-02T01:46:30;8.50;99.90
47168;DHT22;32931;47.778;17.806;2024-03-02T01:48:57;8.40;99.90
47168;DHT22;32931;47.778;17.806;2024-03-02T01:51:23;8.30;99.90
47168;DHT22;32931;47.778;17.806;2024-03-02T01:53:49;8.30;99.90
47168;DHT22;32931;47.778;17.806;2024-03-02T01:56:15;8.20;99.90
47168;DHT22;32931;47.778;17.806;2024-03-02T01:58:41;8.20;99.90
47168;DHT22;32931;47.778;17.806;2024-03-02T02:01:08;8.10;99.90
47168;DHT22;32931;47.778;17.806;2024-03-02T02:03:36;8.10;99.90
47168;DHT22;32931;47.778;17.806;2024-03-02T02:06:03;8.10;99.90
47168;DHT22;32931;47.778;17.806;2024-03-02T02:08:29;8.10;99.90
47168;DHT22;32931;47.778;17.806;2024-03-02T02:10:55;8.10;99.90
47168;DHT22;32931;47.778;17.806;2024-03-02T02:13:21;8.20;99.90
47168;DHT22;32931;47.778;17.806;2024-03-02T02:15:47;8.10;99.90
47168;DHT22;32931;47.778;17.806;2024-03-02T02:18:13;8.10;99.90
47168;DHT22;32931;47.778;17.806;2024-03-02T02:20:39;8.10;99.90
47168;DHT22;32931;47.778;17.806;2024-03-02T02:23:05;8.10;99.90
47168;DHT22;32931;47.778;17.806;2024-03-02T02:25:33;8.00;99.90
47168;DHT22;32931;47.778;17.806;2024-03-02T02:28:00;8.00;99.90
47168;DHT22;32931;47.778;17.806;2024-03-02T02:30:31;8.00;99.90
47168;DHT22;32931;47.778;17.806;2024-03-02T02:32:58;7.90;99.90
47168;DHT22;32931;47.778;17.806;2024-03-02T02:35:24;7.90;99.90
47168;DHT22;32931;47.778;17.806;2024-03-02T02:37:51;7.80;99.90
47168;DHT22;32931;47.778;17.806;2024-03-02T02:40:18;7.90;99.90
47168;DHT22;32931;47.778;17.806;2024-03-02T02:42:47;7.80;99.90
47168;DHT22;32931;47.778;17.806;2024-03-02T02:45:14;7.80;99.90
47168;DHT22;32931;47.778;17.806;2024-03-02T02:47:41;7.80;99.90
47168;DHT22;32931;47.778;17.806;2024-03-02T02:50:08;7.80;99.90
47168;DHT22;32931;47.778;17.806;2024-03-02T02:52:35;7.80;99.90
47168;DHT22;32931;47.778;17.806;2024-03-02T02:55:06;7.80;99.90
47168;DHT22;32931;47.778;17.806;2024-03-02T02:57:33;7.80;99.90
47168;DHT22;32931;47.778;17.806;2024-03-02T03:00:11;7.80;99.90
47168;DHT22;32931;47.778;17.806;2024-03-02T03:02:41;7.90;99.90
47168;DHT22;32931;47.778;17.806;2024-03-02T03:05:11;7.80;99.90
47168;DHT22;32931;47.778;17.806;2024-03-02T03:07:40;7.90;99.90
47168;DHT22;32931;47.778;17.806;2024-03-02T03:10:07;7.80;99.90
47168;DHT22;32931;47.778;17.806;2024-03-02T03:12:34;7.80;99.90
47168;DHT22;32931;47.778;17.806;2024-03-02T03:15:00;7.80;99.90
47168;DHT22;32931;47.778;17.806;2024-03-02T03:17:27;7.80;99.90
47168;DHT22;32931;47.778;17.806;2024-03-02T03:19:53;7.80;99.90
47168;DHT22;32931;47.778;17.806;2024-03-02T03:22:20;7.80;99.90
47168;DHT22;32931;47.778;17.806;2024-03-02T03:24:46;7.80;99.90
47168;DHT22;32931;47.778;17.806;2024-03-02T03:27:12;7.80;99.90
47168;DHT22;32931;47.778;17.806;2024-03-02T03:29:38;7.70;99.90
47168;DHT22;32931;47.778;17.806;2024-03-02T03:32:05;7.70;99.90
47168;DHT22;32931;47.778;17.806;2024-03-02T03:34:33;7.70;99.90
47168;DHT22;32931;47.778;17.806;2024-03-02T03:36:59;7.70;99.90
47168;DHT22;32931;47.778;17.806;2024-03-02T03:39:25;7.70;99.90
47168;DHT22;32931;47.778;17.806;2024-03-02T03:41:51;7.80;99.90
47168;DHT22;32931;47.778;17.806;2024-03-02T03:44:18;7.80;99.90
47168;DHT22;32931;47.778;17.806;2024-03-02T03:46:44;7.80;99.90
47168;DHT22;32931;47.778;17.806;2024-03-02T03:49:10;7.80;99.90
47168;DHT22;32931;47.778;17.806;2024-03-02T03:51:37;7.90;99.90
47168;DHT22;32931;47.778;17.806;2024-03-02T03:54:03;7.90;99.90
47168;DHT22;32931;47.778;17.806;2024-03-02T03:56:29;8.00;99.90
47168;DHT22;32931;47.778;17.806;2024-03-02T03:58:55;8.00;99.90
47168;DHT22;32931;47.778;17.806;2024-03-02T04:01:21;7.90;99.90
47168;DHT22;32931;47.778;17.806;2024-03-02T04:03:48;7.70;99.90
47168;DHT22;32931;47.778;17.806;2024-03-02T04:06:14;7.80;99.90
47168;DHT22;32931;47.778;17.806;2024-03-02T04:08:42;7.80;99.90
47168;DHT22;32931;47.778;17.806;2024-03-02T04:11:09;7.80;99.90
47168;DHT22;32931;47.778;17.806;2024-03-02T04:13:35;7.80;99.90
47168;DHT22;32931;47.778;17.806;2024-03-02T04:16:01;7.90;99.90
47168;DHT22;32931;47.778;17.806;2024-03-02T04:18:27;7.90;99.90
47168;DHT22;32931;47.778;17.806;2024-03-02T04:20:53;7.90;99.90
47168;DHT22;32931;47.778;17.806;2024-03-02T04:23:19;8.00;99.90
47168;DHT22;32931;47.778;17.806;2024-03-02T04:25:45;8.00;99.90
47168;DHT22;32931;47.778;17.806;2024-03-02T04:28:11;8.00;99.90
47168;DHT22;32931;47.778;17.806;2024-03-02T04:30:38;8.00;99.90
47168;DHT22;32931;47.778;17.806;2024-03-02T04:33:04;8.00;99.90
47168;DHT22;32931;47.778;17.806;2024-03-02T04:35:33;8.00;99.90
47168;DHT22;32931;47.778;17.806;2024-03-02T04:37:59;8.00;99.90
47168;DHT22;32931;47.778;17.806;2024-03-02T04:40:25;8.00;99.90
47168;DHT22;32931;47.778;17.806;2024-03-02T04:42:51;8.00;99.90
47168;DHT22;32931;47.778;17.806;2024-03-02T04:45:18;8.00;99.90
47168;DHT22;32931;47.778;17.806;2024-03-02T04:47:44;8.00;99.90
47168;DHT22;32931;47.778;17.806;2024-03-02T04:50:10;8.00;99.90
47168;DHT22;32931;47.778;17.806;2024-03-02T04:52:37;8.00;99.90
47168;DHT22;32931;47.778;17.806;2024-03-02T04:55:03;8.00;99.90
47168;DHT22;32931;47.778;17.806;2024-03-02T04:57:37;8.00;99.90
47168;DHT22;32931;47.778;17.806;2024-03-02T05:00:03;8.10;99.90
47168;DHT22;32931;47.778;17.806;2024-03-02T05:02:32;8.00;99.90
47168;DHT22;32931;47.778;17.806;2024-03-02T05:04:59;8.00;99.90
47168;DHT22;32931;47.778;17.806;2024-03-02T05:07:25;8.00;99.90
47168;DHT22;32931;47.778;17.806;2024-03-02T05:09:51;7.80;99.90
47168;DHT22;32931;47.778;17.806;2024-03-02T05:12:17;7.70;99.90
47168;DHT22;32931;47.778;17.806;2024-03-02T05:15:02;7.60;99.90
47168;DHT22;32931;47.778;17.806;2024-03-02T05:17:28;7.60;99.90
47168;DHT22;32931;47.778;17.806;2024-03-02T05:19:54;7.70;99.90
47168;DHT22;32931;47.778;17.806;2024-03-02T05:22:20;7.80;99.90
47168;DHT22;32931;47.778;17.806;2024-03-02T05:24:46;7.80;99.90
47168;DHT22;32931;47.778;17.806;2024-03-02T05:27:12;7.90;99.90
47168;DHT22;32931;47.778;17.806;2024-03-02T05:29:39;8.00;99.90
47168;DHT22;32931;47.778;17.806;2024-03-02T05:32:05;8.00;99.90
47168;DHT22;32931;47.778;17.806;2024-03-02T05:34:31;8.00;99.90
47168;DHT22;32931;47.778;17.806;2024-03-02T05:36:58;8.10;99.90
47168;DHT22;32931;47.778;17.806;2024-03-02T05:39:24;8.10;99.90
47168;DHT22;32931;47.778;17.806;2024-03-02T05:41:50;8.10;99.90
47168;DHT22;32931;47.778;17.806;2024-03-02T05:44:17;8.20;99.90
47168;DHT22;32931;47.778;17.806;2024-03-02T05:46:44;8.20;99.90
47168;DHT22;32931;47.778;17.806;2024-03-02T05:49:10;8.30;99.90
47168;DHT22;32931;47.778;17.806;2024-03-02T05:51:36;8.30;99.90
47168;DHT22;32931;47.778;17.806;2024-03-02T05:54:03;8.40;99.90
47168;DHT22;32931;47.778;17.806;2024-03-02T05:56:29;8.40;99.90
47168;DHT22;32931;47.778;17.806;2024-03-02T05:58:55;8.50;99.90
47168;DHT22;32931;47.778;17.806;2024-03-02T06:01:40;8.50;99.90
47168;DHT22;32931;47.778;17.806;2024-03-02T06:04:07;8.60;99.90
47168;DHT22;32931;47.778;17.806;2024-03-02T06:06:33;8.60;99.90
47168;DHT22;32931;47.778;17.806;2024-03-02T06:09:04;8.60;99.90
47168;DHT22;32931;47.778;17.806;2024-03-02T06:11:40;8.70;99.90
47168;DHT22;32931;47.778;17.806;2024-03-02T06:14:07;8.70;99.90
47168;DHT22;32931;47.778;17.806;2024-03-02T06:16:34;8.80;99.90
47168;DHT22;32931;47.778;17.806;2024-03-02T06:19:00;8.80;99.90
47168;DHT22;32931;47.778;17.806;2024-03-02T06:21:27;8.90;99.90
47168;DHT22;32931;47.778;17.806;2024-03-02T06:23:53;8.90;99.90
47168;DHT22;32931;47.778;17.806;2024-03-02T06:26:20;9.00;99.90
47168;DHT22;32931;47.778;17.806;2024-03-02T06:28:46;9.00;99.90
47168;DHT22;32931;47.778;17.806;2024-03-02T06:31:13;9.00;99.90
47168;DHT22;32931;47.778;17.806;2024-03-02T06:33:39;9.10;99.90
47168;DHT22;32931;47.778;17.806;2024-03-02T06:36:06;9.20;99.90
47168;DHT22;32931;47.778;17.806;2024-03-02T06:38:35;9.20;99.90
47168;DHT22;32931;47.778;17.806;2024-03-02T06:41:01;9.30;99.90
47168;DHT22;32931;47.778;17.806;2024-03-02T06:43:28;9.30;99.90
47168;DHT22;32931;47.778;17.806;2024-03-02T06:45:54;9.40;99.90
47168;DHT22;32931;47.778;17.806;2024-03-02T06:48:20;9.40;99.90
47168;DHT22;32931;47.778;17.806;2024-03-02T06:50:47;9.50;99.90
47168;DHT22;32931;47.778;17.806;2024-03-02T06:53:16;9.50;99.90
47168;DHT22;32931;47.778;17.806;2024-03-02T06:55:44;9.60;99.90
47168;DHT22;32931;47.778;17.806;2024-03-02T06:58:14;9.60;99.90
47168;DHT22;32931;47.778;17.806;2024-03-02T07:00:43;9.70;99.90
47168;DHT22;32931;47.778;17.806;2024-03-02T07:03:10;9.80;99.90
47168;DHT22;32931;47.778;17.806;2024-03-02T07:05:36;9.80;99.90
47168;DHT22;32931;47.778;17.806;2024-03-02T07:08:02;9.90;99.90
47168;DHT22;32931;47.778;17.806;2024-03-02T07:10:29;9.90;99.90
47168;DHT22;32931;47.778;17.806;2024-03-02T07:12:55;10.00;99.90
47168;DHT22;32931;47.778;17.806;2024-03-02T07:15:21;10.00;99.90
47168;DHT22;32931;47.778;17.806;2024-03-02T07:18:03;10.10;99.90
47168;DHT22;32931;47.778;17.806;2024-03-02T07:20:30;10.20;99.90
47168;DHT22;32931;47.778;17.806;2024-03-02T07:22:56;10.20;99.90
47168;DHT22;32931;47.778;17.806;2024-03-02T07:25:23;10.30;99.90
47168;DHT22;32931;47.778;17.806;2024-03-02T07:27:49;10.30;99.90
47168;DHT22;32931;47.778;17.806;2024-03-02T07:30:15;10.40;99.90
47168;DHT22;32931;47.778;17.806;2024-03-02T07:32:44;10.40;99.90
47168;DHT22;32931;47.778;17.806;2024-03-02T07:35:14;10.50;99.90
47168;DHT22;32931;47.778;17.806;2024-03-02T07:37:44;10.60;99.90
47168;DHT22;32931;47.778;17.806;2024-03-02T07:40:11;10.60;99.90
47168;DHT22;32931;47.778;17.806;2024-03-02T07:42:39;10.60;99.90
47168;DHT22;32931;47.778;17.806;2024-03-02T07:45:06;10.70;99.90
47168;DHT22;32931;47.778;17.806;2024-03-02T07:47:35;10.70;99.90
47168;DHT22;32931;47.778;17.806;2024-03-02T07:50:01;10.80;99.90
47168;DHT22;32931;47.778;17.806;2024-03-02T07:52:27;10.80;99.90
47168;DHT22;32931;47.778;17.806;2024-03-02T07:54:53;10.80;99.90
47168;DHT22;32931;47.778;17.806;2024-03-02T07:57:20;10.80;99.90
47168;DHT22;32931;47.778;17.806;2024-03-02T07:59:46;10.80;99.90
47168;DHT22;32931;47.778;17.806;2024-03-02T08:02:13;10.80;99.90
47168;DHT22;32931;47.778;17.806;2024-03-02T08:04:39;10.80;99.90
47168;DHT22;32931;47.778;17.806;2024-03-02T08:07:05;10.90;99.90
47168;DHT22;32931;47.778;17.806;2024-03-02T08:09:32;10.90;99.90
47168;DHT22;32931;47.778;17.806;2024-03-02T08:11:58;10.90;99.90
47168;DHT22;32931;47.778;17.806;2024-03-02T08:14:26;10.90;99.90
47168;DHT22;32931;47.778;17.806;2024-03-02T08:16:52;10.90;99.90
47168;DHT22;32931;47.778;17.806;2024-03-02T08:19:19;10.90;99.90
47168;DHT22;32931;47.778;17.806;2024-03-02T08:21:45;11.00;99.90
47168;DHT22;32931;47.778;17.806;2024-03-02T08:24:11;11.00;99.90
47168;DHT22;32931;47.778;17.806;2024-03-02T08:26:37;11.00;99.90
47168;DHT22;32931;47.778;17.806;2024-03-02T08:29:03;11.00;99.90
47168;DHT22;32931;47.778;17.806;2024-03-02T08:31:30;11.00;99.90
47168;DHT22;32931;47.778;17.806;2024-03-02T08:33:59;11.00;99.90
47168;DHT22;32931;47.778;17.806;2024-03-02T08:36:26;11.00;99.90
47168;DHT22;32931;47.778;17.806;2024-03-02T08:38:55;11.10;99.90
47168;DHT22;32931;47.778;17.806;2024-03-02T08:41:21;11.10;99.90
47168;DHT22;32931;47.778;17.806;2024-03-02T08:43:47;11.10;99.90
47168;DHT22;32931;47.778;17.806;2024-03-02T08:46:14;11.10;99.90
47168;DHT22;32931;47.778;17.806;2024-03-02T08:48:40;11.10;99.90
47168;DHT22;32931;47.778;17.806;2024-03-02T08:51:06;11.10;99.90
47168;DHT22;32931;47.778;17.806;2024-03-02T08:53:33;11.10;99.90
47168;DHT22;32931;47.778;17.806;2024-03-02T08:56:00;11.10;99.90
47168;DHT22;32931;47.778;17.806;2024-03-02T08:58:26;11.10;99.90
47168;DHT22;32931;47.778;17.806;2024-03-02T09:00:52;11.10;99.90
47168;DHT22;32931;47.778;17.806;2024-03-02T09:03:18;11.10;99.90
47168;DHT22;32931;47.778;17.806;2024-03-02T09:05:44;11.20;99.90
47168;DHT22;32931;47.778;17.806;2024-03-02T09:08:10;11.10;99.90
47168;DHT22;32931;47.778;17.806;2024-03-02T09:10:36;11.10;99.90
47168;DHT22;32931;47.778;17.806;2024-03-02T09:13:05;11.20;99.90
47168;DHT22;32931;47.778;17.806;2024-03-02T09:15:31;11.20;99.90
47168;DHT22;32931;47.778;17.806;2024-03-02T09:17:57;11.20;99.90
47168;DHT22;32931;47.778;17.806;2024-03-02T09:20:23;11.20;99.90
47168;DHT22;32931;47.778;17.806;2024-03-02T09:22:49;11.20;99.90
47168;DHT22;32931;47.778;17.806;2024-03-02T09:25:16;11.20;99.90
47168;DHT22;32931;47.778;17.806;2024-03-02T09:27:42;11.30;99.90
47168;DHT22;32931;47.778;17.806;2024-03-02T09:30:08;11.30;99.90
47168;DHT22;32931;47.778;17.806;2024-03-02T09:32:37;11.30;99.90
47168;DHT22;32931;47.778;17.806;2024-03-02T09:35:03;11.40;99.90
47168;DHT22;32931;47.778;17.806;2024-03-02T09:37:29;11.40;99.90
47168;DHT22;32931;47.778;17.806;2024-03-02T09:39:56;11.40;99.90
47168;DHT22;32931;47.778;17.806;2024-03-02T09:42:22;11.40;99.90
47168;DHT22;32931;47.778;17.806;2024-03-02T09:44:48;11.50;99.90
47168;DHT22;32931;47.778;17.806;2024-03-02T09:47:14;11.50;99.90
47168;DHT22;32931;47.778;17.806;2024-03-02T09:49:41;11.50;99.90
47168;DHT22;32931;47.778;17.806;2024-03-02T09:52:07;11.50;99.90
47168;DHT22;32931;47.778;17.806;2024-03-02T09:54:33;11.50;99.90
47168;DHT22;32931;47.778;17.806;2024-03-02T09:56:59;11.50;99.90
47168;DHT22;32931;47.778;17.806;2024-03-02T09:59:27;11.60;99.90
47168;DHT22;32931;47.778;17.806;2024-03-02T10:02:02;11.60;99.90
47168;DHT22;32931;47.778;17.806;2024-03-02T10:04:29;11.60;99.90
47168;DHT22;32931;47.778;17.806;2024-03-02T10:07:13;11.60;99.90
47168;DHT22;32931;47.778;17.806;2024-03-02T10:09:48;11.70;99.90
47168;DHT22;32931;47.778;17.806;2024-03-02T10:12:16;11.70;99.90
47168;DHT22;32931;47.778;17.806;2024-03-02T10:14:43;11.70;99.90
47168;DHT22;32931;47.778;17.806;2024-03-02T10:17:11;11.70;99.90
47168;DHT22;32931;47.778;17.806;2024-03-02T10:19:38;11.70;99.90
47168;DHT22;32931;47.778;17.806;2024-03-02T10:22:06;11.80;99.90
47168;DHT22;32931;47.778;17.806;2024-03-02T10:24:40;11.80;99.90
47168;DHT22;32931;47.778;17.806;2024-03-02T10:27:16;11.80;99.90
47168;DHT22;32931;47.778;17.806;2024-03-02T10:29:46;11.90;99.90
47168;DHT22;32931;47.778;17.806;2024-03-02T10:32:12;11.90;99.90
47168;DHT22;32931;47.778;17.806;2024-03-02T10:34:45;11.90;99.90
47168;DHT22;32931;47.778;17.806;2024-03-02T10:37:13;12.00;99.90
47168;DHT22;32931;47.778;17.806;2024-03-02T10:39:40;12.00;99.90
47168;DHT22;32931;47.778;17.806;2024-03-02T10:42:07;12.00;99.90
47168;DHT22;32931;47.778;17.806;2024-03-02T10:44:33;12.00;99.90
47168;DHT22;32931;47.778;17.806;2024-03-02T10:47:05;12.10;99.90
47168;DHT22;32931;47.778;17.806;2024-03-02T10:49:32;12.10;99.90
47168;DHT22;32931;47.778;17.806;2024-03-02T10:51:59;12.10;99.90
47168;DHT22;32931;47.778;17.806;2024-03-02T10:54:26;12.10;99.90
47168;DHT22;32931;47.778;17.806;2024-03-02T10:56:58;12.20;99.90
47168;DHT22;32931;47.778;17.806;2024-03-02T10:59:34;12.20;99.90
47168;DHT22;32931;47.778;17.806;2024-03-02T11:02:02;12.20;99.90
47168;DHT22;32931;47.778;17.806;2024-03-02T11:04:30;12.30;99.90
47168;DHT22;32931;47.778;17.806;2024-03-02T11:07:09;12.30;99.90
47168;DHT22;32931;47.778;17.806;2024-03-02T11:09:41;12.40;99.90
47168;DHT22;32931;47.778;17.806;2024-03-02T11:12:19;12.40;99.90
47168;DHT22;32931;47.778;17.806;2024-03-02T11:14:50;12.40;99.90
47168;DHT22;32931;47.778;17.806;2024-03-02T11:17:18;12.40;99.90
47168;DHT22;32931;47.778;17.806;2024-03-02T11:19:44;12.50;99.90
47168;DHT22;32931;47.778;17.806;2024-03-02T11:22:12;12.50;99.90
47168;DHT22;32931;47.778;17.806;2024-03-02T11:24:39;12.50;99.90
47168;DHT22;32931;47.778;17.806;2024-03-02T11:27:06;12.60;99.90
47168;DHT22;32931;47.778;17.806;2024-03-02T11:32:18;12.60;99.90
47168;DHT22;32931;47.778;17.806;2024-03-02T11:34:48;12.60;99.90
47168;DHT22;32931;47.778;17.806;2024-03-02T11:37:19;12.60;99.90
47168;DHT22;32931;47.778;17.806;2024-03-02T11:39:51;12.70;99.90
47168;DHT22;32931;47.778;17.806;2024-03-02T11:42:18;12.70;99.90
47168;DHT22;32931;47.778;17.806;2024-03-02T11:44:47;12.70;99.90
47168;DHT22;32931;47.778;17.806;2024-03-02T11:47:15;12.80;99.90
47168;DHT22;32931;47.778;17.806;2024-03-02T11:49:43;12.80;99.90
47168;DHT22;32931;47.778;17.806;2024-03-02T11:52:14;12.80;99.90
47168;DHT22;32931;47.778;17.806;2024-03-02T11:54:42;12.80;99.90
47168;DHT22;32931;47.778;17.806;2024-03-02T11:57:21;12.90;99.90
47168;DHT22;32931;47.778;17.806;2024-03-02T11:59:53;12.90;99.90
47168;DHT22;32931;47.778;17.806;2024-03-02T12:02:20;12.90;99.90
47168;DHT22;32931;47.778;17.806;2024-03-02T12:04:48;12.90;99.90
47168;DHT22;32931;47.778;17.806;2024-03-02T12:07:21;12.90;99.90
47168;DHT22;32931;47.778;17.806;2024-03-02T12:10:10;12.90;99.90
47168;DHT22;32931;47.778;17.806;2024-03-02T12:12:35;13.00;99.90
47168;DHT22;32931;47.778;17.806;2024-03-02T12:15:01;13.00;99.90
47168;DHT22;32931;47.778;17.806;2024-03-02T12:17:29;13.00;99.90
47168;DHT22;32931;47.778;17.806;2024-03-02T12:19:56;13.00;99.90
47168;DHT22;32931;47.778;17.806;2024-03-02T12:22:22;13.10;99.90
47168;DHT22;32931;47.778;17.806;2024-03-02T12:24:49;13.00;99.90
47168;DHT22;32931;47.778;17.806;2024-03-02T12:27:15;13.10;99.90
47168;DHT22;32931;47.778;17.806;2024-03-02T12:29:42;13.00;99.90
47168;DHT22;32931;47.778;17.806;2024-03-02T12:32:08;13.10;99.90
47168;DHT22;32931;47.778;17.806;2024-03-02T12:34:34;13.10;99.90
47168;DHT22;32931;47.778;17.806;2024-03-02T12:37:00;13.10;99.90
47168;DHT22;32931;47.778;17.806;2024-03-02T12:39:27;13.00;99.90
47168;DHT22;32931;47.778;17.806;2024-03-02T12:41:53;13.00;99.90
47168;DHT22;32931;47.778;17.806;2024-03-02T12:44:21;13.00;99.90
47168;DHT22;32931;47.778;17.806;2024-03-02T12:46:50;13.00;99.90
47168;DHT22;32931;47.778;17.806;2024-03-02T12:49:22;12.90;99.90
47168;DHT22;32931;47.778;17.806;2024-03-02T12:51:48;12.90;99.90
47168;DHT22;32931;47.778;17.806;2024-03-02T12:54:18;12.90;99.90
47168;DHT22;32931;47.778;17.806;2024-03-02T12:56:44;12.90;99.90
47168;DHT22;32931;47.778;17.806;2024-03-02T12:59:24;12.80;99.90
47168;DHT22;32931;47.778;17.806;2024-03-02T13:01:56;12.80;99.90
47168;DHT22;32931;47.778;17.806;2024-03-02T13:04:26;12.80;99.90
47168;DHT22;32931;47.778;17.806;2024-03-02T13:06:55;12.80;99.90
47168;DHT22;32931;47.778;17.806;2024-03-02T13:09:23;12.70;99.90
47168;DHT22;32931;47.778;17.806;2024-03-02T13:11:50;12.70;99.90
47168;DHT22;32931;47.778;17.806;2024-03-02T13:14:16;12.70;99.90
47168;DHT22;32931;47.778;17.806;2024-03-02T13:16:42;12.60;99.90
47168;DHT22;32931;47.778;17.806;2024-03-02T13:19:12;12.60;99.90
47168;DHT22;32931;47.778;17.806;2024-03-02T13:21:39;12.60;99.90
47168;DHT22;32931;47.778;17.806;2024-03-02T13:24:05;12.60;99.90
47168;DHT22;32931;47.778;17.806;2024-03-02T13:26:31;12.60;99.90
47168;DHT22;32931;47.778;17.806;2024-03-02T13:28:58;12.50;99.90
47168;DHT22;32931;47.778;17.806;2024-03-02T13:31:24;12.50;99.90
47168;DHT22;32931;47.778;17.806;2024-03-02T13:33:50;12.50;99.90
47168;DHT22;32931;47.778;17.806;2024-03-02T13:36:16;12.50;99.90
47168;DHT22;32931;47.778;17.806;2024-03-02T13:38:43;12.60;99.90
47168;DHT22;32931;47.778;17.806;2024-03-02T13:41:09;12.60;99.90
47168;DHT22;32931;47.778;17.806;2024-03-02T13:43:37;12.60;99.90
47168;DHT22;32931;47.778;17.806;2024-03-02T13:46:04;12.60;99.90
47168;DHT22;32931;47.778;17.806;2024-03-02T13:48:30;12.70;99.90
47168;DHT22;32931;47.778;17.806;2024-03-02T13:50:57;12.70;99.90
47168;DHT22;32931;47.778;17.806;2024-03-02T13:53:23;12.70;99.90
47168;DHT22;32931;47.778;17.806;2024-03-02T13:55:49;12.70;99.90
47168;DHT22;32931;47.778;17.806;2024-03-02T13:58:15;12.70;99.90
47168;DHT22;32931;47.778;17.806;2024-03-02T14:00:42;12.70;99.90
47168;DHT22;32931;47.778;17.806;2024-03-02T14:03:10;12.70;99.90
47168;DHT22;32931;47.778;17.806;2024-03-02T14:05:37;12.70;99.90
47168;DHT22;32931;47.778;17.806;2024-03-02T14:08:03;12.70;99.90
47168;DHT22;32931;47.778;17.806;2024-03-02T14:10:30;12.80;99.90
47168;DHT22;32931;47.778;17.806;2024-03-02T14:12:56;12.70;99.90
47168;DHT22;32931;47.778;17.806;2024-03-02T14:15:22;12.70;99.90
47168;DHT22;32931;47.778;17.806;2024-03-02T14:17:49;12.80;99.90
47168;DHT22;32931;47.778;17.806;2024-03-02T14:20:16;12.80;99.90
47168;DHT22;32931;47.778;17.806;2024-03-02T14:22:48;12.80;99.90
47168;DHT22;32931;47.778;17.806;2024-03-02T14:25:15;12.80;99.90
47168;DHT22;32931;47.778;17.806;2024-03-02T14:27:41;12.80;99.90
47168;DHT22;32931;47.778;17.806;2024-03-02T14:30:08;12.70;99.90
47168;DHT22;32931;47.778;17.806;2024-03-02T14:32:34;12.80;99.90
47168;DHT22;32931;47.778;17.806;2024-03-02T14:35:00;12.80;99.90
47168;DHT22;32931;47.778;17.806;2024-03-02T14:37:26;12.80;99.90
47168;DHT22;32931;47.778;17.806;2024-03-02T14:39:52;12.80;99.90
47168;DHT22;32931;47.778;17.806;2024-03-02T14:42:18;12.80;99.90
47168;DHT22;32931;47.778;17.806;2024-03-02T14:44:44;12.90;99.90
47168;DHT22;32931;47.778;17.806;2024-03-02T14:47:11;12.90;99.90
47168;DHT22;32931;47.778;17.806;2024-03-02T14:49:37;12.90;99.90
47168;DHT22;32931;47.778;17.806;2024-03-02T14:52:06;12.90;99.90
47168;DHT22;32931;47.778;17.806;2024-03-02T14:54:33;12.90;99.90
47168;DHT22;32931;47.778;17.806;2024-03-02T14:57:01;12.90;99.90
47168;DHT22;32931;47.778;17.806;2024-03-02T14:59:28;12.90;99.90
47168;DHT22;32931;47.778;17.806;2024-03-02T15:01:55;12.90;99.90
47168;DHT22;32931;47.778;17.806;2024-03-02T15:04:22;12.90;99.90
47168;DHT22;32931;47.778;17.806;2024-03-02T15:06:48;12.90;99.90
47168;DHT22;32931;47.778;17.806;2024-03-02T15:09:14;12.80;99.90
47168;DHT22;32931;47.778;17.806;2024-03-02T15:11:44;12.80;99.90
47168;DHT22;32931;47.778;17.806;2024-03-02T15:14:11;12.80;99.90
47168;DHT22;32931;47.778;17.806;2024-03-02T15:16:37;12.80;99.90
47168;DHT22;32931;47.778;17.806;2024-03-02T15:19:03;12.80;99.90
47168;DHT22;32931;47.778;17.806;2024-03-02T15:21:29;12.70;99.90
47168;DHT22;32931;47.778;17.806;2024-03-02T15:23:55;12.70;99.90
47168;DHT22;32931;47.778;17.806;2024-03-02T15:26:21;12.70;99.90
47168;DHT22;32931;47.778;17.806;2024-03-02T15:28:48;12.70;99.90
47168;DHT22;32931;47.778;17.806;2024-03-02T15:31:14;12.70;99.90